Time;durP1;ratioP1;P1;durP2;ratioP2;P2;SDS_P1;SDS_P2;PMS_P1;PMS_P2;Temp;Humidity;BMP_temperature;BMP_pressure;BME280_temperature;BME280_humidity;BME280_pressure;Samples;Min_cycle;Max_cycle;Signal;HPM_P1;HPM_P2
2023/01/06 00:01:05;;;;;;;5.97;1.67;;;;;;;-142.75;100.00;77353.81;5021731;28;20325;-67
2023/01/06 00:03:30;;;;;;;7.97;2.53;;;;;;;-142.75;100.00;77353.81;5021708;28;20737;-68
2023/01/06 00:06:00;;;;;;;4.82;1.90;;;;;;;-142.75;100.00;77347.91;5021847;28;20085;-67
2023/01/06 00:08:26;;;;;;;12.65;2.95;;;;;;;-142.75;100.00;77349.88;5022938;28;20101;-67
2023/01/06 00:10:52;;;;;;;7.70;1.95;;;;;;;-142.75;100.00;77342.00;5021759;28;20548;-66
2023/01/06 00:13:17;;;;;;;;;;;;;;;-142.75;100.00;77336.09;5022008;28;20024;-66
2023/01/06 00:15:43;;;;;;;7.88;2.30;;;;;;;-142.75;100.00;77351.84;5021794;28;19970;-67
2023/01/06 00:18:08;;;;;;;6.03;2.13;;;;;;;-142.75;100.00;77342.00;5021509;28;20016;-67
2023/01/06 00:20:34;;;;;;;6.28;2.25;;;;;;;-142.75;100.00;77338.06;5024228;28;20561;-67
2023/01/06 00:22:59;;;;;;;4.88;2.05;;;;;;;-142.75;100.00;77353.81;5006720;28;20270;-67
2023/01/06 00:25:25;;;;;;;6.25;2.00;;;;;;;-142.75;100.00;77342.00;5021642;28;20032;-67
2023/01/06 00:27:50;;;;;;;4.22;1.60;;;;;;;-142.75;100.00;77334.13;5021809;28;20511;-67
2023/01/06 00:30:16;;;;;;;4.57;1.70;;;;;;;-142.75;100.00;77334.13;5023187;28;20247;-67
2023/01/06 00:32:41;;;;;;;;;;;;;;;-142.75;100.00;77336.09;5025609;28;20024;-67
2023/01/06 00:35:07;;;;;;;6.43;1.83;;;;;;;-142.75;100.00;77336.09;5025028;28;20069;-68
2023/01/06 00:37:32;;;;;;;6.00;1.65;;;;;;;-142.75;100.00;77355.78;5024913;28;20345;-67
2023/01/06 00:39:58;;;;;;;7.70;1.95;;;;;;;-142.75;100.00;77349.88;5025316;28;20027;-67
2023/01/06 00:42:23;;;;;;;3.15;1.50;;;;;;;-142.75;100.00;77334.13;5025129;28;20305;-67
2023/01/06 00:44:49;;;;;;;7.30;2.13;;;;;;;-142.75;100.00;77334.13;5024903;28;20341;-68
2023/01/06 00:47:15;;;;;;;5.55;2.00;;;;;;;-142.75;100.00;77347.91;5025139;28;20449;-67
2023/01/06 00:49:40;;;;;;;;;;;;;;;-142.75;100.00;77343.97;5025722;28;20415;-68
2023/01/06 00:52:06;;;;;;;7.15;2.05;;;;;;;-142.75;100.00;77357.75;5024956;28;20195;-67
2023/01/06 00:54:31;;;;;;;5.97;2.13;;;;;;;-142.75;100.00;77342.00;5026656;28;20345;-68
2023/01/06 00:56:57;;;;;;;6.35;2.05;;;;;;;-142.75;100.00;77330.19;5024949;28;20201;-67
2023/01/06 00:59:24;;;;;;;10.85;2.00;;;;;;;-142.75;100.00;77324.28;5024839;28;20329;-67
2023/01/06 01:01:52;;;;;;;7.55;1.90;;;;;;;-142.75;100.00;77330.19;5024802;28;20043;-67
2023/01/06 01:04:18;;;;;;;8.55;2.10;;;;;;;-142.75;100.00;77338.06;5024663;28;20131;-67
2023/01/06 01:06:46;;;;;;;6.28;2.42;;;;;;;-142.75;100.00;77324.28;5025355;28;20082;-68
2023/01/06 01:09:15;;;;;;;5.43;2.17;;;;;;;-142.75;100.00;77336.09;5024323;28;20607;-67
2023/01/06 01:14:24;;;;;;;7.50;1.83;;;;;;;-142.75;100.00;77330.19;5024858;28;20205;-68
2023/01/06 01:16:50;;;;;;;5.10;1.60;;;;;;;-142.75;100.00;77330.19;5024167;28;20281;-68
2023/01/06 01:19:16;;;;;;;4.38;1.30;;;;;;;-142.75;100.00;77340.03;5024448;28;20306;-67
2023/01/06 01:21:41;;;;;;;3.83;1.60;;;;;;;-142.75;100.00;77326.25;5024373;28;20357;-67
2023/01/06 01:24:07;;;;;;;6.82;2.00;;;;;;;-142.75;100.00;77334.13;5026914;28;20034;-68
2023/01/06 01:26:33;;;;;;;;;;;;;;;-142.75;100.00;77326.25;5024516;28;20424;-68
2023/01/06 01:28:59;;;;;;;3.47;1.63;;;;;;;-142.75;100.00;77322.31;5005699;28;20395;-68
2023/01/06 01:31:25;;;;;;;5.65;1.48;;;;;;;-142.75;100.00;77334.13;5023902;28;20046;-68
2023/01/06 01:33:50;;;;;;;4.40;1.40;;;;;;;-142.75;100.00;77357.75;5023780;28;20490;-67
2023/01/06 01:36:17;;;;;;;5.20;1.88;;;;;;;-142.75;100.00;77336.09;5005862;28;20344;-67
2023/01/06 01:38:43;;;;;;;7.22;1.42;;;;;;;-142.75;100.00;77338.06;5023852;28;20024;-67
2023/01/06 01:41:14;;;;;;;4.97;1.58;;;;;;;-142.75;100.00;77318.38;5022870;28;20302;-67
2023/01/06 01:43:54;;;;;;;3.85;1.48;;;;;;;-142.75;100.00;77316.41;5023816;28;20097;-67
2023/01/06 01:46:26;;;;;;;5.32;1.58;;;;;;;-142.75;100.00;77334.13;5005626;28;20024;-66
2023/01/06 01:48:53;;;;;;;4.85;1.50;;;;;;;-142.75;100.00;77351.84;5005363;28;20028;-67
2023/01/06 01:51:25;;;;;;;6.13;1.50;;;;;;;-142.75;100.00;77322.31;5005391;28;20032;-67
2023/01/06 01:53:54;;;;;;;4.82;1.45;;;;;;;-142.75;100.00;77314.44;5005156;28;20135;-67
2023/01/06 01:56:27;;;;;;;6.55;1.73;;;;;;;-142.75;100.00;77314.44;5023648;28;20032;-68
2023/01/06 01:58:59;;;;;;;3.17;1.25;;;;;;;-142.75;100.00;77318.38;5023610;28;20521;-66
2023/01/06 02:01:24;;;;;;;6.15;1.55;;;;;;;-142.75;100.00;77310.50;5005304;28;20613;-66
2023/01/06 02:03:51;;;;;;;3.45;1.15;;;;;;;-142.75;100.00;77298.69;5023425;28;20036;-67
2023/01/06 02:06:18;;;;;;;;;;;;;;;-142.75;100.00;77302.63;5006506;28;20020;-67
2023/01/06 02:09:25;;;;;;;7.85;1.30;;;;;;;-142.75;100.00;77308.53;5023400;28;19939;-67
2023/01/06 02:11:51;;;;;;;4.10;1.40;;;;;;;-142.75;100.00;77322.31;5011096;28;20066;-67
2023/01/06 02:14:17;;;;;;;;;;;;;;;-142.75;100.00;77290.81;5024187;28;20360;-67
2023/01/06 02:16:55;;;;;;;6.13;1.40;;;;;;;-142.75;100.00;77310.50;5023042;28;19912;-67
2023/01/06 02:19:58;;;;;;;5.20;1.48;;;;;;;-142.75;100.00;77302.63;5005139;28;20051;-67
2023/01/06 02:22:42;;;;;;;2.92;1.10;;;;;;;-142.75;100.00;77306.56;5004770;28;20614;-67
2023/01/06 02:25:23;;;;;;;3.05;0.85;;;;;;;-142.75;100.00;77312.47;5025411;28;20544;-67
2023/01/06 02:28:07;;;;;;;4.28;0.90;;;;;;;-142.75;100.00;77304.59;5004794;28;20028;-67
2023/01/06 02:30:42;;;;;;;3.65;0.98;;;;;;;-142.75;100.00;77310.50;5005437;28;20595;-67
2023/01/06 02:33:28;;;;;;;9.18;1.27;;;;;;;-142.75;100.00;77306.56;5004954;28;20551;-66
2023/01/06 02:36:09;;;;;;;4.72;0.93;;;;;;;-142.75;100.00;77302.63;5004343;28;20028;-67
2023/01/06 02:38:44;;;;;;;6.20;0.80;;;;;;;-142.75;100.00;77298.69;5023103;28;20101;-68
2023/01/06 02:41:28;;;;;;;3.58;0.80;;;;;;;-142.75;100.00;77290.81;5022831;28;20557;-68
2023/01/06 02:44:28;;;;;;;7.95;1.40;;;;;;;-142.75;100.00;77294.75;5022756;28;20024;-67
2023/01/06 02:46:57;;;;;;;3.65;1.10;;;;;;;-142.75;100.00;77310.50;4971973;28;20109;-66
2023/01/06 02:49:41;;;;;;;6.15;1.33;;;;;;;-142.75;100.00;77271.13;5022605;28;20599;-66
2023/01/06 02:52:21;;;;;;;3.95;1.00;;;;;;;-142.75;100.00;77269.16;5022745;28;20116;-67
2023/01/06 02:55:04;;;;;;;5.72;1.23;;;;;;;-142.75;100.00;77275.06;5003963;28;20143;-67
2023/01/06 02:57:58;;;;;;;3.53;0.90;;;;;;;-142.75;100.00;77267.19;5022470;28;20019;-67
2023/01/06 03:00:33;;;;;;;4.72;0.98;;;;;;;-142.75;100.00;77271.13;5021785;28;20032;-68
2023/01/06 03:03:10;;;;;;;6.10;1.00;;;;;;;-142.75;100.00;77263.25;5004060;28;20051;-67
2023/01/06 03:05:37;;;;;;;3.58;0.98;;;;;;;-142.75;100.00;77271.13;5022228;28;20032;-67
2023/01/06 03:08:11;;;;;;;5.18;0.88;;;;;;;-142.75;100.00;77263.25;5003580;28;20544;-67
2023/01/06 03:10:39;;;;;;;5.82;0.85;;;;;;;-142.75;100.00;77259.31;5022285;28;20633;-66
2023/01/06 03:13:20;;;;;;;3.25;0.75;;;;;;;-142.75;100.00;77255.38;5004012;28;20016;-66
2023/01/06 03:15:45;;;;;;;4.43;0.70;;;;;;;-142.75;100.00;77265.22;5024724;28;20055;-68
2023/01/06 03:18:11;;;;;;;3.75;0.88;;;;;;;-142.75;100.00;77267.19;5022199;28;20313;-67
2023/01/06 03:20:37;;;;;;;4.30;0.70;;;;;;;-142.75;100.00;77271.13;5006050;28;20424;-67
2023/01/06 03:23:02;;;;;;;2.25;0.70;;;;;;;-142.75;100.00;77249.47;5021821;28;20332;-67
2023/01/06 03:25:28;;;;;;;;;;;;;;;-142.75;100.00;77255.38;5024031;28;20024;-67
2023/01/06 03:27:53;;;;;;;3.42;0.85;;;;;;;-142.75;100.00;77245.53;5022972;28;20218;-65
2023/01/06 03:30:19;;;;;;;2.38;1.00;;;;;;;-142.75;100.00;77245.53;5003432;28;20020;-67
2023/01/06 03:32:53;;;;;;;4.95;0.73;;;;;;;-142.75;100.00;77237.66;5021758;28;20515;-67
2023/01/06 03:35:37;;;;;;;3.03;0.70;;;;;;;-142.75;100.00;77223.88;5022127;28;20138;-68
2023/01/06 03:38:29;;;;;;;4.75;0.70;;;;;;;-142.75;100.00;77239.63;5003988;28;20134;-68
2023/01/06 03:41:19;;;;;;;2.83;0.50;;;;;;;-142.75;100.00;77231.75;5003431;28;20032;-67
2023/01/06 03:43:50;;;;;;;2.53;0.73;;;;;;;-142.75;100.00;77239.63;4963324;28;20592;-66
2023/01/06 03:46:36;;;;;;;3.80;0.93;;;;;;;-142.75;100.00;77219.94;5021763;28;20556;-66
2023/01/06 03:49:10;;;;;;;6.22;1.02;;;;;;;-142.75;100.00;77216.00;5021118;28;20672;-66
2023/01/06 03:52:12;;;;;;;4.88;0.80;;;;;;;-142.75;100.00;77221.91;5021552;28;20630;-67
2023/01/06 03:54:53;;;;;;;3.75;0.85;;;;;;;-142.75;100.00;77227.81;5003480;28;20028;-66
2023/01/06 03:57:26;;;;;;;3.55;0.93;;;;;;;-142.75;100.00;77212.06;5021826;28;20105;-67
2023/01/06 03:59:59;;;;;;;5.10;0.80;;;;;;;-142.75;100.00;77204.19;5014003;28;20024;-67
2023/01/06 04:02:25;;;;;;;3.08;0.70;;;;;;;-142.75;100.00;77202.22;5021708;28;20169;-67
2023/01/06 04:05:18;;;;;;;5.55;1.13;;;;;;;-142.75;100.00;77212.06;5006074;28;20028;-68
2023/01/06 04:07:44;;;;;;;2.95;1.00;;;;;;;-142.75;100.00;77202.22;5021316;28;20147;-66
2023/01/06 04:10:11;;;;;;;6.03;1.02;;;;;;;-142.75;100.00;77208.13;5025509;28;20216;-67
2023/01/06 04:12:37;;;;;;;4.82;0.90;;;;;;;-142.75;100.00;77219.94;5025543;28;20181;-67
2023/01/06 04:15:29;;;;;;;7.07;1.10;;;;;;;-142.75;100.00;77206.16;5025601;28;20475;-66
2023/01/06 04:17:55;;;;;;;4.15;0.95;;;;;;;-142.75;100.00;77217.97;5022080;28;20040;-66
2023/01/06 04:20:27;;;;;;;9.80;0.80;;;;;;;-142.75;100.00;77196.31;5025567;28;20385;-66
2023/01/06 04:22:54;;;;;;;3.90;0.75;;;;;;;-142.75;100.00;77200.25;5025551;28;20024;-67
2023/01/06 04:25:20;;;;;;;2.83;0.68;;;;;;;-142.75;100.00;77219.94;5025107;28;20032;-67
2023/01/06 04:27:45;;;;;;;2.25;0.82;;;;;;;-142.75;100.00;77214.03;5025067;28;20087;-69
2023/01/06 04:30:11;;;;;;;5.18;0.90;;;;;;;-142.75;100.00;77208.13;5025214;28;20353;-67
2023/01/06 04:32:37;;;;;;;7.47;1.10;;;;;;;-142.75;100.00;77208.13;5007137;28;20345;-67
2023/01/06 04:35:02;;;;;;;2.75;0.85;;;;;;;-142.75;100.00;77208.13;5025155;28;20325;-66
2023/01/06 04:37:28;;;;;;;;;;;;;;;-142.75;100.00;77194.34;5025434;28;20020;-66
2023/01/06 04:39:53;;;;;;;4.13;0.93;;;;;;;-142.75;100.00;77204.19;5006843;28;20303;-67
2023/01/06 04:42:19;;;;;;;3.67;1.00;;;;;;;-142.75;100.00;77204.19;5025128;28;20341;-66
2023/01/06 04:44:44;;;;;;;4.05;0.85;;;;;;;-142.75;100.00;77198.28;5006419;28;20465;-67
2023/01/06 04:47:10;;;;;;;5.40;0.98;;;;;;;-142.75;100.00;77196.31;5025089;28;20060;-67
2023/01/06 04:49:35;;;;;;;3.60;0.88;;;;;;;-142.75;100.00;77188.44;5024825;28;20314;-67
2023/01/06 04:52:01;;;;;;;1.73;0.85;;;;;;;-142.75;100.00;77200.25;5024893;28;20349;-67
2023/01/06 04:54:26;;;;;;;3.13;1.35;;;;;;;-142.75;100.00;77184.50;5024846;28;20361;-68
2023/01/06 04:56:52;;;;;;;7.35;1.08;;;;;;;-142.75;100.00;77192.38;5024708;28;20036;-67
2023/01/06 04:59:18;;;;;;;6.20;1.00;;;;;;;-142.75;100.00;77192.38;5025043;28;20463;-66
2023/01/06 05:01:43;;;;;;;;;;;;;;;-142.75;100.00;77174.66;5025825;28;20467;-67
2023/01/06 05:04:09;;;;;;;4.15;1.00;;;;;;;-142.75;100.00;77182.53;5024586;28;20254;-66
2023/01/06 05:06:34;;;;;;;2.80;0.85;;;;;;;-142.75;100.00;77184.50;5024665;28;20126;-69
2023/01/06 05:09:00;;;;;;;3.53;1.08;;;;;;;-142.75;100.00;77192.38;5024681;28;20325;-67
2023/01/06 05:11:26;;;;;;;7.00;0.80;;;;;;;-142.75;100.00;77186.47;5024473;28;20353;-67
2023/01/06 05:13:52;;;;;;;;;;;;;;;-142.75;100.00;77210.09;5025169;28;20528;-66
2023/01/06 05:16:20;;;;;;;3.67;0.70;;;;;;;-142.75;100.00;77188.44;5022873;28;19911;-67
2023/01/06 05:18:45;;;;;;;2.80;0.82;;;;;;;-142.75;100.00;77194.34;5006041;28;20139;-66
2023/01/06 05:21:11;;;;;;;3.63;0.82;;;;;;;-142.75;100.00;77184.50;5024213;28;20329;-66
2023/01/06 05:23:37;;;;;;;2.25;0.85;;;;;;;-142.75;100.00;77188.44;5005745;28;20038;-66
2023/01/06 05:26:04;;;;;;;3.92;0.90;;;;;;;-142.75;100.00;77188.44;5000415;28;20050;-66
2023/01/06 05:28:30;;;;;;;4.03;0.90;;;;;;;-142.75;100.00;77180.56;5024111;28;20224;-66
2023/01/06 05:31:03;;;;;;;1.65;0.90;;;;;;;-142.75;100.00;77180.56;5025449;28;20032;-66
2023/01/06 05:36:00;;;;;;;7.88;1.25;;;;;;;-142.75;100.00;77180.56;5031859;22;20575;-67
2023/01/06 05:38:26;;;;;;;3.80;0.80;;;;;;;-142.75;100.00;77200.25;4996882;28;20021;-67
2023/01/06 05:40:52;;;;;;;2.38;1.00;;;;;;;-142.75;100.00;77170.72;4991835;28;20295;-67
2023/01/06 05:43:19;;;;;;;3.85;0.98;;;;;;;-142.75;100.00;77178.59;5006331;28;20024;-67
2023/01/06 05:45:44;;;;;;;2.38;1.00;;;;;;;-142.75;100.00;77182.53;5004091;28;20024;-64
2023/01/06 05:48:10;;;;;;;1.45;0.77;;;;;;;-142.75;100.00;77180.56;5003974;28;20381;-66
2023/01/06 05:50:35;;;;;;;2.45;0.80;;;;;;;-142.75;100.00;77182.53;5005232;28;20420;-65
2023/01/06 05:53:01;;;;;;;4.28;0.95;;;;;;;-142.75;100.00;77180.56;5004270;28;20525;-64
2023/01/06 05:55:26;;;;;;;1.92;0.90;;;;;;;-142.75;100.00;77184.50;5004162;28;20187;-65
2023/01/06 05:57:52;;;;;;;4.60;0.90;;;;;;;-142.75;100.00;77176.63;5004383;28;20300;-67
2023/01/06 06:00:17;;;;;;;2.08;1.02;;;;;;;-142.75;100.00;77166.78;5003714;28;20343;-67
2023/01/06 06:02:43;;;;;;;2.22;0.93;;;;;;;-142.75;100.00;77188.44;5004495;28;20370;-67
2023/01/06 06:05:09;;;;;;;4.20;1.02;;;;;;;-142.75;100.00;77184.50;5004881;28;20466;-66
2023/01/06 06:07:34;;;;;;;2.05;0.95;;;;;;;-142.75;100.00;77184.50;5004768;28;20028;-67
2023/01/06 06:10:00;;;;;;;;;;;;;;;-142.75;100.00;77172.69;5004758;28;20424;-64
2023/01/06 06:12:25;;;;;;;1.67;0.85;;;;;;;-142.75;100.00;77174.66;5005851;28;20237;-65
2023/01/06 06:14:51;;;;;;;4.55;1.50;;;;;;;-142.75;100.00;77176.63;5003585;28;20033;-65
2023/01/06 06:17:16;;;;;;;2.42;1.30;;;;;;;-142.75;100.00;77184.50;5004144;28;20342;-64
2023/01/06 06:19:42;;;;;;;3.80;1.50;;;;;;;-142.75;100.00;77180.56;5003778;28;20311;-64
2023/01/06 06:22:07;;;;;;;2.00;1.10;;;;;;;-142.75;100.00;77188.44;5003351;28;20365;-64
2023/01/06 06:24:33;;;;;;;5.00;1.52;;;;;;;-142.75;100.00;77186.47;4985113;28;20311;-63
2023/01/06 06:26:58;;;;;;;;;;;;;;;-142.75;100.00;77172.69;5003746;28;20140;-63
2023/01/06 06:29:24;;;;;;;5.15;1.77;;;;;;;-142.75;100.00;77162.84;5003480;28;20223;-65
2023/01/06 06:31:49;;;;;;;4.45;1.55;;;;;;;-142.75;100.00;77162.84;4984730;28;20358;-64
2023/01/06 06:34:15;;;;;;;3.53;1.60;;;;;;;-142.75;100.00;77180.56;5002781;28;20357;-64
2023/01/06 06:36:41;;;;;;;4.68;1.63;;;;;;;-142.75;100.00;77188.44;5005334;28;20475;-65
2023/01/06 06:39:06;;;;;;;2.97;1.75;;;;;;;-142.75;100.00;77180.56;5003377;28;20334;-64
2023/01/06 06:41:31;;;;;;;4.03;1.88;;;;;;;-142.75;100.00;77176.63;4984743;28;20252;-64
2023/01/06 06:43:57;;;;;;;5.60;1.92;;;;;;;-142.75;100.00;77180.56;5004457;28;20368;-64
2023/01/06 06:46:22;;;;;;;5.43;1.88;;;;;;;-142.75;100.00;77176.63;5004417;28;20349;-64
2023/01/06 06:48:49;;;;;;;5.43;2.22;;;;;;;-142.75;100.00;77188.44;5002711;28;20286;-65
2023/01/06 06:51:17;;;;;;;3.50;2.05;;;;;;;-142.75;100.00;77186.47;5002742;28;20024;-63
2023/01/06 06:53:44;;;;;;;2.90;1.50;;;;;;;-142.75;100.00;77188.44;5002546;28;20148;-64
2023/01/06 06:56:12;;;;;;;3.35;1.58;;;;;;;-142.75;100.00;77200.25;4984411;28;20119;-65
2023/01/06 06:58:38;;;;;;;5.25;1.77;;;;;;;-142.75;100.00;77200.25;4984167;28;20028;-64
2023/01/06 07:01:08;;;;;;;3.30;1.85;;;;;;;-142.75;100.00;77186.47;5005071;28;20182;-65
2023/01/06 07:03:33;;;;;;;2.97;1.88;;;;;;;-142.75;100.00;77188.44;5002482;28;20576;-64
2023/01/06 07:05:59;;;;;;;7.20;2.25;;;;;;;-142.75;100.00;77192.38;5002318;28;20056;-65
2023/01/06 07:08:26;;;;;;;7.10;2.10;;;;;;;-142.75;100.00;77184.50;5002204;28;20032;-64
2023/01/06 07:10:52;;;;;;;3.15;1.92;;;;;;;-142.75;100.00;77192.38;5002208;28;20133;-65
2023/01/06 07:13:17;;;;;;;5.43;1.90;;;;;;;-142.75;100.00;77208.13;4984994;28;20253;-63
2023/01/06 07:15:43;;;;;;;4.57;1.30;;;;;;;-142.75;100.00;77216.00;5003265;28;20391;-64
2023/01/06 07:18:09;;;;;;;7.53;1.58;;;;;;;-142.75;100.00;77212.06;5003797;28;20349;-65
2023/01/06 07:20:36;;;;;;;4.68;1.15;;;;;;;-142.75;100.00;77216.00;5003840;28;20373;-64
2023/01/06 07:23:03;;;;;;;10.93;1.90;;;;;;;-142.75;100.00;77219.94;5002316;28;20028;-65
2023/01/06 07:25:29;;;;;;;12.60;1.35;;;;;;;-142.75;100.00;77229.78;4983860;28;20159;-65
2023/01/06 07:27:55;;;;;;;;;;;;;;;-142.75;100.00;77229.78;5004629;28;20127;-66
2023/01/06 07:30:21;;;;;;;7.95;1.55;;;;;;;-142.75;100.00;77225.84;5002684;28;20018;-65
2023/01/06 07:32:48;;;;;;;4.05;1.30;;;;;;;-142.75;100.00;77219.94;5002404;28;20572;-66
2023/01/06 07:35:13;;;;;;;8.00;1.45;;;;;;;-142.75;100.00;77225.84;5003318;28;20048;-66
2023/01/06 07:37:39;;;;;;;6.75;1.73;;;;;;;-142.75;100.00;77239.63;5003609;28;20333;-65
2023/01/06 07:40:05;;;;;;;11.50;1.50;;;;;;;-142.75;100.00;77231.75;5001731;28;20325;-66
2023/01/06 07:42:30;;;;;;;;;;;;;;;-142.75;100.00;77231.75;5002904;28;20670;-65
2023/01/06 07:44:55;;;;;;;9.38;1.42;;;;;;;-142.75;100.00;77245.53;5003293;28;19912;-66
2023/01/06 07:47:21;;;;;;;;;;;;;;;-142.75;100.00;77243.56;4983865;28;20555;-64
2023/01/06 07:49:46;;;;;;;9.80;1.27;;;;;;;-142.75;100.00;77241.59;5003570;28;20222;-64
2023/01/06 07:52:12;;;;;;;8.40;1.80;;;;;;;-142.75;100.00;77257.34;5002304;28;20342;-65
2023/01/06 07:54:37;;;;;;;13.15;1.75;;;;;;;-142.75;100.00;77249.47;5001904;28;20037;-64
2023/01/06 07:57:03;;;;;;;9.70;1.27;;;;;;;-142.75;100.00;77255.38;5002310;28;20310;-63
2023/01/06 07:59:28;;;;;;;;;;;;;;;-142.75;100.00;77259.31;5002449;28;20090;-64
2023/01/06 08:01:54;;;;;;;12.70;1.73;;;;;;;-142.75;100.00;77267.19;5001991;28;19939;-65
2023/01/06 08:04:19;;;;;;;;;;;;;;;-142.75;100.00;77259.31;5004508;28;20449;-65
2023/01/06 08:06:45;;;;;;;9.18;1.48;;;;;;;-142.75;100.00;77273.09;5002807;28;20315;-64
2023/01/06 08:09:10;;;;;;;12.20;1.58;;;;;;;-142.75;100.00;77263.25;5002636;28;20024;-65
2023/01/06 08:11:36;;;;;;;11.23;1.73;;;;;;;-142.75;100.00;77282.94;5002328;28;20025;-65
2023/01/06 08:14:01;;;;;;;8.43;1.23;;;;;;;-142.75;100.00;77302.63;5002158;28;20275;-65
2023/01/06 08:16:26;;;;;;;;;;;;;;;-142.75;100.00;77296.72;5002046;28;20098;-64
2023/01/06 08:18:52;;;;;;;14.32;1.92;;;;;;;-142.75;100.00;77302.63;5001414;28;20361;-64
2023/01/06 08:21:17;;;;;;;16.17;1.80;;;;;;;-142.75;100.00;77277.03;5002212;28;20343;-64
2023/01/06 08:23:43;;;;;;;9.05;1.27;;;;;;;-142.75;100.00;77269.16;5003361;28;20431;-65
2023/01/06 08:26:14;;;;;;;7.10;1.55;;;;;;;-142.75;100.00;77255.38;5001451;28;20408;-64
2023/01/06 08:28:42;;;;;;;10.10;1.38;;;;;;;-142.75;100.00;77263.25;5001229;28;20032;-65
2023/01/06 08:31:09;;;;;;;3.70;1.00;;;;;;;-142.75;100.00;77294.75;5001799;28;20032;-65
2023/01/06 08:33:34;;;;;;;6.88;1.02;;;;;;;-142.75;100.00;77300.66;5002001;28;20094;-65
2023/01/06 08:36:03;;;;;;;13.20;1.27;;;;;;;-142.75;100.00;77310.50;5001233;28;20555;-65
2023/01/06 08:38:29;;;;;;;9.38;1.10;;;;;;;-142.75;100.00;77308.53;5000872;28;20028;-66
2023/01/06 08:40:57;;;;;;;6.75;0.95;;;;;;;-142.75;100.00;77306.56;5001169;28;20020;-66
2023/01/06 08:43:23;;;;;;;12.32;1.42;;;;;;;-142.75;100.00;77271.13;4992691;28;20054;-66
2023/01/06 08:45:49;;;;;;;14.40;1.40;;;;;;;-142.75;100.00;77253.41;5002056;28;20549;-66
2023/01/06 08:48:15;;;;;;;;;;;;;;;-142.75;100.00;77221.91;4981026;28;20142;-65
2023/01/06 08:50:41;;;;;;;8.80;1.23;;;;;;;-142.75;100.00;77188.44;4990226;28;20376;-65
2023/01/06 08:53:07;;;;;;;10.25;1.30;;;;;;;-142.75;100.00;77188.44;4987016;28;20911;-65
2023/01/06 08:55:36;;;;;;;7.32;1.40;;;;;;;-142.75;100.00;77190.41;4986578;28;20136;-65
2023/01/06 08:58:02;;;;;;;11.07;1.52;;;;;;;-142.75;100.00;77164.81;4987632;28;20028;-65
2023/01/06 09:00:27;;;;;;;9.57;1.10;;;;;;;-142.75;100.00;77145.13;4986540;28;20253;-66
2023/01/06 09:02:53;;;;;;;;;;;;;;;-142.75;100.00;77139.22;4986859;28;20508;-65
2023/01/06 09:05:18;;;;;;;8.13;1.10;;;;;;;-142.75;100.00;77107.72;4986525;28;20219;-66
2023/01/06 09:07:44;;;;;;;6.43;0.98;;;;;;;-142.75;100.00;77129.38;4986479;28;20198;-64
2023/01/06 09:10:10;;;;;;;;;;;;;;;-142.75;100.00;77115.59;4986797;28;20024;-65
2023/01/06 09:12:37;;;;;;;5.40;0.98;;;;;;;-142.75;100.00;77121.50;4986471;28;19986;-65
2023/01/06 09:15:04;;;;;;;5.00;0.82;;;;;;;-142.75;100.00;77147.09;5004431;28;20031;-66
2023/01/06 09:17:29;;;;;;;10.30;0.70;;;;;;;-142.75;100.00;77151.03;5005879;28;20078;-66
2023/01/06 09:19:55;;;;;;;8.48;0.65;;;;;;;-142.75;100.00;77131.34;5005917;28;20326;-66
2023/01/06 09:22:20;;;;;;;;;;;;;;;-142.75;100.00;77135.28;5004583;28;20245;-66
2023/01/06 09:24:45;;;;;;;5.32;0.90;;;;;;;-142.75;100.00;77097.88;5004522;28;20269;-65
2023/01/06 09:27:11;;;;;;;;;;;;;;;-142.75;100.00;77062.44;4986548;28;20338;-66
2023/01/06 09:29:36;;;;;;;4.97;0.60;;;;;;;-142.75;100.00;77058.50;4996081;28;20274;-65
2023/01/06 09:32:02;;;;;;;;;;;;;;;-142.75;100.00;77052.59;5004546;28;20336;-65
2023/01/06 09:34:28;;;;;;;4.75;0.70;;;;;;;-142.75;100.00;77025.03;5003921;28;20210;-66
2023/01/06 09:36:53;;;;;;;;;;;;;;;-142.75;100.00;76995.50;5003625;28;20334;-65
2023/01/06 09:39:19;;;;;;;4.07;0.70;;;;;;;-142.75;100.00;77013.22;5003962;28;20226;-66
2023/01/06 09:41:50;;;;;;;;;;;;;;;-142.75;100.00;76967.94;5003419;28;20024;-67
2023/01/06 09:44:25;;;;;;;4.60;0.90;;;;;;;-142.75;100.00;76987.63;5002976;28;19912;-65
2023/01/06 09:46:51;;;;;;;4.18;0.63;;;;;;;-142.75;100.00;76956.13;4984292;28;20020;-65
2023/01/06 09:49:38;;;;;;;6.70;0.60;;;;;;;-142.75;100.00;76928.56;5004224;28;20028;-65
2023/01/06 09:52:08;;;;;;;;;;;;;;;-142.75;100.00;76991.56;4991867;28;20032;-66
2023/01/06 09:54:41;;;;;;;6.38;0.98;;;;;;;-142.75;100.00;77011.25;5006042;28;20506;-65
2023/01/06 09:57:19;;;;;;;5.85;1.02;;;;;;;-142.75;100.00;77052.59;4985644;28;20143;-66
2023/01/06 09:59:49;;;;;;;6.68;0.90;;;;;;;-142.75;100.00;77019.13;5004158;28;20567;-65
2023/01/06 10:02:24;;;;;;;6.28;0.98;;;;;;;-142.75;100.00;76948.25;4974451;28;20052;-65
2023/01/06 10:04:50;;;;;;;4.05;0.93;;;;;;;-142.75;100.00;76906.91;5002365;28;20102;-65
2023/01/06 10:07:24;;;;;;;;;;;;;;;-142.75;100.00;76873.44;5003129;28;20455;-66
2023/01/06 10:10:12;;;;;;;5.40;0.88;;;;;;;-142.75;100.00;76845.88;4985166;28;20774;-64
2023/01/06 10:12:46;;;;;;;6.03;0.90;;;;;;;-142.75;100.00;76877.38;5004584;28;20536;-64
2023/01/06 10:15:43;;;;;;;5.80;0.90;;;;;;;-142.75;100.00;76861.63;5003430;28;20032;-65
2023/01/06 10:18:21;;;;;;;7.07;1.08;;;;;;;-142.75;100.00;76861.63;5003576;28;20020;-66
2023/01/06 10:21:28;;;;;;;3.38;0.70;;;;;;;-142.75;100.00;76845.88;5004692;28;20032;-68
2023/01/06 10:24:12;;;;;;;7.40;0.88;;;;;;;-142.75;100.00;76843.91;4965171;28;20064;-65
2023/01/06 10:26:42;;;;;;;6.68;0.75;;;;;;;-142.75;100.00;76822.25;4989211;28;20067;-69
2023/01/06 10:29:16;;;;;;;6.85;0.90;;;;;;;-142.75;100.00;76820.28;5003174;28;20036;-66
2023/01/06 10:31:47;;;;;;;3.70;1.05;;;;;;;-142.75;100.00;76853.75;4984445;28;20218;-65
2023/01/06 10:34:25;;;;;;;6.40;0.70;;;;;;;-142.75;100.00;76897.06;5002811;28;20068;-66
2023/01/06 10:37:16;;;;;;;5.15;0.77;;;;;;;-142.75;100.00;76869.50;5003636;28;20033;-66
2023/01/06 10:39:45;;;;;;;5.93;0.85;;;;;;;-142.75;100.00;76881.31;5004239;28;20031;-65
2023/01/06 10:45:12;;;;;;;5.57;0.90;;;;;;;-142.75;100.00;76869.50;4990708;28;20334;-65
2023/01/06 10:47:41;;;;;;;5.93;0.80;;;;;;;-142.75;100.00;76891.16;5003817;28;20032;-64
2023/01/06 10:50:12;;;;;;;4.57;1.02;;;;;;;-142.75;100.00;76902.97;5002654;28;20599;-65
2023/01/06 10:52:37;;;;;;;4.43;0.68;;;;;;;-142.75;100.00;76940.38;5003001;28;20036;-65
2023/01/06 10:55:05;;;;;;;7.85;0.60;;;;;;;-142.75;100.00;76932.50;4984117;28;20458;-64
2023/01/06 10:57:37;;;;;;;3.97;0.70;;;;;;;-142.75;100.00;76936.44;5002200;28;20052;-63
2023/01/06 11:00:35;;;;;;;3.40;0.73;;;;;;;-142.75;100.00;76946.28;5002543;28;20679;-63
2023/01/06 11:03:05;;;;;;;8.05;0.90;;;;;;;-142.75;100.00;76983.69;4949036;28;20029;-63
2023/01/06 11:05:33;;;;;;;5.95;1.10;;;;;;;-142.75;100.00;76962.03;4981760;28;20017;-64
2023/01/06 11:08:13;;;;;;;7.82;1.38;;;;;;;-142.75;100.00;76979.75;5002597;28;20020;-64
2023/01/06 11:10:42;;;;;;;5.30;0.60;;;;;;;-142.75;100.00;76983.69;4986957;28;20807;-64
2023/01/06 11:13:22;;;;;;;5.75;0.70;;;;;;;-142.75;100.00;76979.75;5002420;28;20603;-64
2023/01/06 11:15:48;;;;;;;5.20;0.70;;;;;;;-142.75;100.00;76983.69;5004512;28;20078;-65
2023/01/06 11:18:21;;;;;;;;;;;;;;;-142.75;100.00;76991.56;5003314;28;20131;-64
2023/01/06 11:21:04;;;;;;;7.95;0.85;;;;;;;-142.75;100.00;76956.13;5002257;28;19912;-65
2023/01/06 11:23:30;;;;;;;4.82;0.80;;;;;;;-142.75;100.00;76950.22;5004633;28;20028;-65
2023/01/06 11:26:04;;;;;;;;;;;;;;;-142.75;100.00;76934.47;5002183;28;20038;-65
2023/01/06 11:28:29;;;;;;;4.57;0.63;;;;;;;-142.75;100.00;76956.13;4996059;28;19942;-65
2023/01/06 11:31:00;;;;;;;;;;;;;;;-142.75;100.00;76999.44;5002312;28;20369;-66
2023/01/06 11:33:28;;;;;;;2.30;0.40;;;;;;;-142.75;100.00;76991.56;5000744;28;20459;-66
2023/01/06 11:35:55;;;;;;;4.65;0.60;;;;;;;-142.75;100.00;76967.94;5019764;22;20063;-70